createdAt,value
2022-09-24T00:01:33.090Z,8.39
2022-09-24T00:04:02.341Z,8.37
2022-09-24T00:06:33.644Z,8.33
2022-09-24T00:09:00.376Z,8.33
2022-09-24T00:11:28.618Z,8.33
2022-09-24T00:13:58.489Z,8.33
2022-09-24T00:16:27.740Z,8.30
2022-09-24T00:18:54.768Z,8.31
2022-09-24T00:21:24.153Z,8.27
2022-09-24T00:23:56.624Z,8.24
2022-09-24T00:26:42.535Z,8.17
2022-09-24T00:29:11.146Z,8.12
2022-09-24T00:31:38.217Z,8.12
2022-09-24T00:34:05.482Z,8.12
2022-09-24T00:36:32.430Z,8.12
2022-09-24T00:38:59.570Z,8.12
2022-09-24T00:41:32.660Z,8.10
2022-09-24T00:43:59.827Z,8.06
2022-09-24T00:46:44.032Z,8.03
2022-09-24T00:49:16.784Z,7.99
2022-09-24T00:51:46.942Z,7.99
2022-09-24T00:54:19.430Z,8.00
2022-09-24T00:56:50.189Z,8.03
2022-09-24T00:59:20.252Z,8.05
2022-09-24T01:01:49.380Z,8.02
2022-09-24T01:04:22.284Z,8.09
2022-09-24T01:06:49.905Z,8.07
2022-09-24T01:09:22.128Z,8.07
2022-09-24T01:12:15.420Z,8.01
2022-09-24T01:15:12.843Z,7.89
2022-09-24T01:18:00.791Z,7.84
2022-09-24T01:20:53.394Z,7.83
2022-09-24T01:23:46.272Z,7.83
2022-09-24T01:26:40.334Z,7.86
2022-09-24T01:29:37.491Z,7.92
2022-09-24T01:32:08.355Z,7.97
2022-09-24T01:34:46.920Z,8.00
2022-09-24T01:37:17.794Z,8.05
2022-09-24T01:39:47.153Z,8.09
2022-09-24T01:42:15.129Z,8.08
2022-09-24T01:44:44.418Z,8.07
2022-09-24T01:47:23.303Z,8.05
2022-09-24T01:49:53.759Z,8.03
2022-09-24T01:52:26.325Z,8.00
2022-09-24T01:54:56.513Z,7.97
2022-09-24T01:57:30.030Z,7.99
2022-09-24T02:00:09.953Z,8.03
2022-09-24T02:02:51.938Z,8.05
2022-09-24T02:05:43.222Z,8.09
2022-09-24T02:08:18.446Z,8.12
2022-09-24T02:10:50.880Z,8.08
2022-09-24T02:13:20.456Z,7.99
2022-09-24T02:15:54.094Z,7.93
2022-09-24T02:18:25.678Z,7.91
2022-09-24T02:20:53.258Z,7.84
2022-09-24T02:23:20.610Z,7.81
2022-09-24T02:25:57.984Z,7.80
2022-09-24T02:28:25.567Z,7.79
2022-09-24T02:30:59.274Z,7.80
2022-09-24T02:33:46.702Z,7.80
2022-09-24T02:36:13.390Z,7.77
2022-09-24T02:38:39.955Z,7.78
2022-09-24T02:41:09.186Z,7.80
2022-09-24T02:43:36.312Z,7.82
2022-09-24T02:46:03.005Z,7.82
2022-09-24T02:48:29.640Z,7.82
2022-09-24T02:50:56.086Z,7.87
2022-09-24T02:53:22.733Z,7.87
2022-09-24T02:55:49.251Z,7.84
2022-09-24T02:58:15.792Z,7.81
2022-09-24T03:00:42.293Z,7.77
2022-09-24T03:03:08.735Z,7.71
2022-09-24T03:05:35.378Z,7.70
2022-09-24T03:08:01.892Z,7.70
2022-09-24T03:10:28.388Z,7.64
2022-09-24T03:12:55.192Z,7.62
2022-09-24T03:15:21.617Z,7.60
2022-09-24T03:17:48.289Z,7.60
2022-09-24T03:20:14.840Z,7.61
2022-09-24T03:22:41.516Z,7.65
2022-09-24T03:25:08.581Z,7.67
2022-09-24T03:27:35.167Z,7.73
2022-09-24T03:30:20.513Z,7.75
2022-09-24T03:32:48.076Z,7.81
2022-09-24T03:35:15.685Z,7.81
2022-09-24T03:37:47.029Z,7.86
2022-09-24T03:40:15.733Z,7.88
2022-09-24T03:42:42.207Z,7.95
2022-09-24T03:45:09.273Z,7.97
2022-09-24T03:47:35.861Z,7.99
2022-09-24T03:50:02.579Z,8.02
2022-09-24T03:52:29.729Z,8.06
2022-09-24T03:54:56.298Z,8.10
2022-09-24T03:57:22.712Z,8.15
2022-09-24T03:59:49.135Z,8.18
2022-09-24T04:02:15.604Z,8.24
2022-09-24T04:04:42.127Z,8.30
2022-09-24T04:07:08.552Z,8.34
2022-09-24T04:09:35.055Z,8.39
2022-09-24T04:12:02.185Z,8.40
2022-09-24T04:14:29.397Z,8.44
2022-09-24T04:16:55.922Z,8.47
2022-09-24T04:19:22.342Z,8.50
2022-09-24T04:21:48.784Z,8.53
2022-09-24T04:24:15.341Z,8.55
2022-09-24T04:26:42.016Z,8.58
2022-09-24T04:29:08.835Z,8.61
2022-09-24T04:31:35.440Z,8.64
2022-09-24T04:34:02.069Z,8.66
2022-09-24T04:36:28.745Z,8.63
2022-09-24T04:38:55.173Z,8.63
2022-09-24T04:41:21.884Z,8.63
2022-09-24T04:43:48.351Z,8.64
2022-09-24T04:46:15.106Z,8.67
2022-09-24T04:48:41.615Z,8.71
2022-09-24T04:51:08.796Z,8.71
2022-09-24T04:53:37.120Z,8.75
2022-09-24T04:56:05.521Z,8.75
2022-09-24T04:58:32.121Z,8.70
2022-09-24T05:01:03.751Z,8.69
2022-09-24T05:03:30.425Z,8.68
2022-09-24T05:05:56.981Z,8.69
2022-09-24T05:08:23.345Z,8.68
2022-09-24T05:10:50.503Z,8.63
2022-09-24T05:13:17.172Z,8.67
2022-09-24T05:15:43.900Z,8.70
2022-09-24T05:18:10.565Z,8.72
2022-09-24T05:20:37.627Z,8.76
2022-09-24T05:23:04.743Z,8.78
2022-09-24T05:25:31.319Z,8.79
2022-09-24T05:27:58.076Z,8.79
2022-09-24T05:30:25.820Z,8.83
2022-09-24T05:32:52.866Z,8.81
2022-09-24T05:35:23.998Z,8.81
2022-09-24T05:37:53.310Z,8.84
2022-09-24T05:40:38.904Z,8.75
2022-09-24T05:43:05.523Z,8.74
2022-09-24T05:45:32.718Z,8.77
2022-09-24T05:48:00.166Z,8.82
2022-09-24T05:50:27.140Z,8.75
2022-09-24T05:52:53.664Z,8.70
2022-09-24T05:55:20.126Z,8.71
2022-09-24T05:57:46.606Z,8.81
2022-09-24T06:00:13.285Z,8.82
2022-09-24T06:02:39.967Z,8.86
2022-09-24T06:05:06.953Z,8.88
2022-09-24T06:07:33.699Z,8.99
2022-09-24T06:10:00.784Z,9.01
2022-09-24T06:12:27.545Z,9.05
2022-09-24T06:14:54.117Z,9.08
2022-09-24T06:17:21.664Z,9.10
2022-09-24T06:19:48.251Z,9.18
2022-09-24T06:22:14.853Z,9.29
2022-09-24T06:24:41.412Z,9.35
2022-09-24T06:27:07.840Z,9.44
2022-09-24T06:29:35.027Z,9.44
2022-09-24T06:32:01.904Z,9.56
2022-09-24T06:34:28.819Z,9.65
2022-09-24T06:36:56.927Z,9.81
2022-09-24T06:39:24.361Z,9.87
2022-09-24T06:41:51.500Z,9.99
2022-09-24T06:44:19.221Z,10.18
2022-09-24T06:46:46.055Z,10.26
2022-09-24T06:49:12.682Z,10.35
2022-09-24T06:51:39.246Z,10.44
2022-09-24T06:54:06.139Z,10.53
2022-09-24T06:56:32.721Z,10.38
2022-09-24T06:58:59.148Z,10.12
2022-09-24T07:01:25.644Z,10.16
2022-09-24T07:03:52.153Z,10.27
2022-09-24T07:06:18.659Z,10.39
2022-09-24T07:08:45.339Z,10.40
2022-09-24T07:11:13.659Z,10.59
2022-09-24T07:13:40.140Z,10.67
2022-09-24T07:16:06.838Z,10.61
2022-09-24T07:18:33.389Z,10.50
2022-09-24T07:21:00.952Z,10.56
2022-09-24T07:23:27.757Z,10.81
2022-09-24T07:25:57.693Z,10.82
2022-09-24T07:28:24.582Z,10.76
2022-09-24T07:30:58.991Z,10.75
2022-09-24T07:33:26.212Z,10.86
2022-09-24T07:35:52.799Z,11.07
2022-09-24T07:38:19.860Z,11.17
2022-09-24T07:40:46.544Z,11.34
2022-09-24T07:43:15.124Z,11.46
2022-09-24T07:45:42.881Z,11.58
2022-09-24T07:48:10.798Z,11.70
2022-09-24T07:50:42.661Z,11.78
2022-09-24T07:53:12.663Z,11.84
2022-09-24T07:55:41.089Z,11.95
2022-09-24T07:58:19.428Z,12.03
2022-09-24T08:00:46.653Z,12.04
2022-09-24T08:03:13.666Z,12.05
2022-09-24T08:05:47.741Z,12.06
2022-09-24T08:08:15.172Z,12.08
2022-09-24T08:10:42.479Z,12.07
2022-09-24T08:13:09.147Z,12.10
2022-09-24T08:15:35.790Z,12.17
2022-09-24T08:18:06.002Z,12.37
2022-09-24T08:20:33.542Z,12.40
2022-09-24T08:23:05.222Z,12.51
2022-09-24T08:25:32.105Z,12.60
2022-09-24T08:28:03.328Z,12.67
2022-09-24T08:30:30.901Z,12.66
2022-09-24T08:32:58.174Z,12.85
2022-09-24T08:35:25.298Z,12.96
2022-09-24T08:37:54.870Z,13.07
2022-09-24T08:40:28.485Z,13.13
2022-09-24T08:43:24.289Z,13.24
2022-09-24T08:46:15.147Z,13.40
2022-09-24T08:48:46.466Z,13.49
2022-09-24T08:51:19.039Z,13.52
2022-09-24T08:54:07.727Z,13.52
2022-09-24T08:56:37.533Z,13.39
2022-09-24T08:59:23.395Z,13.29
2022-09-24T09:02:18.231Z,13.46
2022-09-24T09:05:24.063Z,13.64
2022-09-24T09:08:42.235Z,13.78
2022-09-24T09:11:07.969Z,13.88
2022-09-24T09:13:41.141Z,13.95
2022-09-24T09:16:21.471Z,14.02
2022-09-24T09:18:51.579Z,14.07
2022-09-24T09:21:22.918Z,14.15
2022-09-24T09:23:50.849Z,14.15
2022-09-24T09:26:20.071Z,14.14
2022-09-24T09:28:47.927Z,14.07
2022-09-24T09:31:58.819Z,14.19
2022-09-24T09:34:43.543Z,14.29
2022-09-24T09:37:26.351Z,14.53
2022-09-24T09:40:12.773Z,14.66
2022-09-24T09:42:42.991Z,14.84
2022-09-24T09:45:18.611Z,14.93
2022-09-24T09:47:55.620Z,14.86
2022-09-24T09:50:48.794Z,14.93
2022-09-24T09:53:26.916Z,15.21
2022-09-24T09:56:06.444Z,15.18
2022-09-24T09:58:35.998Z,15.21
2022-09-24T10:01:15.435Z,15.22
2022-09-24T10:03:44.927Z,15.24
2022-09-24T10:06:14.403Z,15.35
2022-09-24T10:08:40.882Z,15.43
2022-09-24T10:11:15.295Z,15.48
2022-09-24T10:13:41.725Z,15.42
2022-09-24T10:16:12.169Z,15.36
2022-09-24T10:18:44.008Z,15.33
2022-09-24T10:21:14.321Z,15.25
2022-09-24T10:23:43.457Z,15.25
2022-09-24T10:26:10.696Z,15.22
2022-09-24T10:29:03.775Z,15.19
2022-09-24T10:31:32.304Z,15.17
2022-09-24T10:34:01.797Z,15.18
2022-09-24T10:36:32.392Z,15.25
2022-09-24T10:39:07.767Z,15.33
2022-09-24T10:41:35.781Z,15.48
2022-09-24T10:44:11.720Z,15.60
2022-09-24T10:47:12.719Z,15.74
2022-09-24T10:49:57.450Z,15.45
2022-09-24T10:52:47.433Z,15.48
2022-09-24T10:55:29.129Z,15.41
2022-09-24T10:58:14.432Z,15.51
2022-09-24T11:00:59.917Z,15.62
2022-09-24T11:03:32.288Z,15.77
2022-09-24T11:06:10.878Z,16.05
2022-09-24T11:08:55.614Z,16.11
2022-09-24T11:11:32.886Z,15.99
2022-09-24T11:14:31.104Z,15.99
2022-09-24T11:17:00.488Z,16.10
2022-09-24T11:19:48.961Z,16.21
2022-09-24T11:22:44.057Z,16.24
2022-09-24T11:25:16.772Z,16.20
2022-09-24T11:28:17.111Z,16.17
2022-09-24T11:31:02.392Z,16.20
2022-09-24T11:33:41.012Z,16.32
2022-09-24T11:36:07.380Z,16.31
2022-09-24T11:39:01.352Z,16.31
2022-09-24T11:41:47.605Z,16.26
2022-09-24T11:44:31.428Z,16.27
2022-09-24T11:47:26.366Z,15.93
2022-09-24T11:50:06.368Z,15.95
2022-09-24T11:52:41.712Z,16.02
2022-09-24T11:55:18.230Z,15.96
2022-09-24T11:58:00.735Z,15.99
2022-09-24T12:00:36.873Z,15.99
2022-09-24T12:03:14.215Z,16.06
2022-09-24T12:05:52.255Z,16.18
2022-09-24T12:08:21.969Z,16.22
2022-09-24T12:11:15.700Z,16.47
2022-09-24T12:13:45.049Z,16.64
2022-09-24T12:16:15.342Z,16.68
2022-09-24T12:18:57.562Z,16.69
2022-09-24T12:21:34.418Z,16.42
2022-09-24T12:24:07.254Z,16.51
2022-09-24T12:26:37.516Z,16.51
2022-09-24T12:29:36.701Z,16.51
2022-09-24T12:32:33.807Z,16.60
2022-09-24T12:35:19.249Z,16.56
2022-09-24T12:37:51.053Z,16.57
2022-09-24T12:40:32.980Z,16.35
2022-09-24T12:43:02.617Z,16.38
2022-09-24T12:45:29.869Z,16.52
2022-09-24T12:48:01.184Z,16.42
2022-09-24T12:50:31.276Z,16.39
2022-09-24T12:52:57.983Z,16.39
2022-09-24T12:55:30.771Z,16.53
2022-09-24T12:58:05.745Z,16.56
2022-09-24T13:00:32.146Z,16.59
2022-09-24T13:02:59.864Z,16.60
2022-09-24T13:05:32.672Z,16.65
2022-09-24T13:08:24.617Z,16.56
2022-09-24T13:11:05.833Z,16.54
2022-09-24T13:13:40.889Z,16.48
2022-09-24T13:16:19.713Z,16.42
2022-09-24T13:18:55.045Z,16.35
2022-09-24T13:21:25.204Z,16.37
2022-09-24T13:23:52.071Z,16.46
2022-09-24T13:26:24.517Z,16.38
2022-09-24T13:29:00.616Z,16.26
2022-09-24T13:31:41.857Z,16.26
2022-09-24T13:34:11.112Z,16.18
2022-09-24T13:36:44.474Z,16.18
2022-09-24T13:39:48.496Z,16.19
2022-09-24T13:42:25.715Z,16.20
2022-09-24T13:45:00.418Z,16.31
2022-09-24T13:47:45.350Z,16.44
2022-09-24T13:50:44.007Z,16.49
2022-09-24T13:53:32.465Z,16.41
2022-09-24T13:56:02.306Z,16.40
2022-09-24T13:58:30.024Z,16.33
2022-09-24T14:00:59.727Z,16.25
2022-09-24T14:03:30.855Z,16.08
2022-09-24T14:05:57.675Z,15.90
2022-09-24T14:08:27.479Z,15.88
2022-09-24T14:11:13.231Z,15.87
2022-09-24T14:13:45.602Z,15.75
2022-09-24T14:16:18.756Z,15.75
2022-09-24T14:18:45.832Z,15.68
2022-09-24T14:21:50.708Z,15.70
2022-09-24T14:24:34.630Z,15.61
2022-09-24T14:27:03.506Z,15.54
2022-09-24T14:29:52.420Z,15.55
2022-09-24T14:32:32.624Z,15.55
2022-09-24T14:35:27.766Z,15.43
2022-09-24T14:38:04.434Z,15.39
2022-09-24T14:40:46.140Z,15.38
2022-09-24T14:43:22.351Z,15.38
2022-09-24T14:45:50.619Z,15.41
2022-09-24T14:48:31.649Z,15.38
2022-09-24T14:50:58.240Z,15.37
2022-09-24T14:53:27.039Z,15.37
2022-09-24T14:55:54.053Z,15.45
2022-09-24T14:58:36.377Z,15.39
2022-09-24T15:01:24.905Z,15.34
2022-09-24T15:03:56.357Z,15.33
2022-09-24T15:06:25.895Z,15.33
2022-09-24T15:09:05.132Z,15.29
2022-09-24T15:11:34.444Z,15.28
2022-09-24T15:14:27.218Z,15.26
2022-09-24T15:16:55.010Z,15.22
2022-09-24T15:19:22.619Z,15.15
2022-09-24T15:21:52.255Z,15.09
2022-09-24T15:24:20.126Z,15.03
2022-09-24T15:26:58.036Z,14.95
2022-09-24T15:29:24.789Z,14.88
2022-09-24T15:31:52.506Z,14.78
2022-09-24T15:34:20.510Z,14.75
2022-09-24T15:36:55.608Z,14.68
2022-09-24T15:39:23.240Z,14.59
2022-09-24T15:41:49.710Z,14.63
2022-09-24T15:44:22.480Z,14.70
2022-09-24T15:46:51.067Z,14.71
2022-09-24T15:49:22.320Z,14.75
2022-09-24T15:51:59.734Z,14.74
2022-09-24T15:54:26.084Z,14.78
2022-09-24T15:56:52.703Z,14.79
2022-09-24T15:59:21.092Z,14.80
2022-09-24T16:01:50.981Z,14.80
2022-09-24T16:04:17.414Z,14.80
2022-09-24T16:06:43.821Z,14.77
2022-09-24T16:09:10.305Z,14.77
2022-09-24T16:11:36.734Z,14.74
2022-09-24T16:14:03.116Z,14.70
2022-09-24T16:16:29.651Z,14.62
2022-09-24T16:18:56.038Z,14.58
2022-09-24T16:21:22.387Z,14.57
2022-09-24T16:23:54.784Z,14.54
2022-09-24T16:26:21.232Z,14.54
2022-09-24T16:28:50.048Z,14.53
2022-09-24T16:31:16.473Z,14.51
2022-09-24T16:33:42.922Z,14.38
2022-09-24T16:36:09.618Z,14.41
2022-09-24T16:38:37.581Z,14.32
2022-09-24T16:41:05.538Z,14.26
2022-09-24T16:43:32.774Z,14.29
2022-09-24T16:46:03.888Z,14.25
2022-09-24T16:48:31.338Z,14.22
2022-09-24T16:51:08.668Z,14.17
2022-09-24T16:53:35.753Z,14.14
2022-09-24T16:56:13.096Z,14.12
2022-09-24T16:58:41.155Z,14.08
2022-09-24T17:01:09.706Z,14.08
2022-09-24T17:03:36.529Z,14.05
2022-09-24T17:06:03.400Z,14.04
2022-09-24T17:08:53.276Z,14.03
2022-09-24T17:11:20.175Z,13.98
2022-09-24T17:13:49.374Z,13.98
2022-09-24T17:16:16.581Z,13.95
2022-09-24T17:18:42.999Z,13.90
2022-09-24T17:21:11.527Z,13.85
2022-09-24T17:23:38.955Z,13.84
2022-09-24T17:26:11.714Z,13.90
2022-09-24T17:28:40.639Z,13.88
2022-09-24T17:31:08.744Z,13.74
2022-09-24T17:33:43.419Z,13.65
2022-09-24T17:36:10.879Z,13.68
2022-09-24T17:38:37.813Z,13.60
2022-09-24T17:41:06.639Z,13.63
2022-09-24T17:43:34.117Z,13.56
2022-09-24T17:46:14.912Z,13.50
2022-09-24T17:48:44.504Z,13.48
2022-09-24T17:51:19.822Z,13.52
2022-09-24T17:53:46.821Z,13.48
2022-09-24T17:56:14.440Z,13.47
2022-09-24T17:58:44.274Z,13.41
2022-09-24T18:01:22.578Z,13.36
2022-09-24T18:03:56.597Z,13.29
2022-09-24T18:06:25.649Z,13.32
2022-09-24T18:08:54.537Z,13.38
2022-09-24T18:11:27.085Z,13.29
2022-09-24T18:13:55.736Z,13.25
2022-09-24T18:16:24.588Z,13.25
2022-09-24T18:18:51.434Z,13.18
2022-09-24T18:21:20.745Z,13.17
2022-09-24T18:23:48.004Z,13.13
2022-09-24T18:26:21.454Z,13.13
2022-09-24T18:28:47.826Z,13.23
2022-09-24T18:31:14.574Z,13.16
2022-09-24T18:33:42.742Z,13.19
2022-09-24T18:36:11.911Z,13.18
2022-09-24T18:38:38.630Z,13.18
2022-09-24T18:41:12.854Z,13.18
2022-09-24T18:43:39.875Z,13.19
2022-09-24T18:46:08.937Z,13.18
2022-09-24T18:48:35.584Z,13.21
2022-09-24T18:51:01.975Z,13.17
2022-09-24T18:53:31.334Z,13.12
2022-09-24T18:56:02.980Z,13.13
2022-09-24T18:58:29.347Z,13.06
2022-09-24T19:01:05.435Z,13.06
2022-09-24T19:03:32.278Z,13.08
2022-09-24T19:06:04.221Z,13.15
2022-09-24T19:08:31.978Z,13.06
2022-09-24T19:11:17.394Z,13.04
2022-09-24T19:13:49.404Z,12.97
2022-09-24T19:16:17.836Z,12.89
2022-09-24T19:18:44.388Z,12.86
2022-09-24T19:21:14.023Z,12.90
2022-09-24T19:23:45.906Z,12.88
2022-09-24T19:26:15.911Z,12.87
2022-09-24T19:28:43.329Z,12.87
2022-09-24T19:31:14.973Z,12.86
2022-09-24T19:33:41.687Z,12.86
2022-09-24T19:36:09.450Z,12.88
2022-09-24T19:38:37.080Z,12.86
2022-09-24T19:41:27.124Z,12.85
2022-09-24T19:43:58.567Z,12.83
2022-09-24T19:46:27.186Z,12.83
2022-09-24T19:48:55.381Z,12.79
2022-09-24T19:51:30.183Z,12.78
2022-09-24T19:53:59.097Z,12.75
2022-09-24T19:56:26.372Z,12.76
2022-09-24T19:58:55.800Z,12.74
2022-09-24T20:01:24.872Z,12.73
2022-09-24T20:03:51.629Z,12.68
2022-09-24T20:06:22.512Z,12.64
2022-09-24T20:08:49.885Z,12.60
2022-09-24T20:11:22.211Z,12.59
2022-09-24T20:13:49.932Z,12.59
2022-09-24T20:16:19.407Z,12.57
2022-09-24T20:18:50.634Z,12.55
2022-09-24T20:21:18.777Z,12.55
2022-09-24T20:23:46.745Z,12.53
2022-09-24T20:26:33.121Z,12.48
2022-09-24T20:28:59.790Z,12.47
2022-09-24T20:31:26.415Z,12.46
2022-09-24T20:33:53.801Z,12.42
2022-09-24T20:36:24.031Z,12.43
2022-09-24T20:38:51.315Z,12.41
2022-09-24T20:41:20.103Z,12.40
2022-09-24T20:43:46.775Z,12.40
2022-09-24T20:46:19.203Z,12.37
2022-09-24T20:48:45.722Z,12.34
2022-09-24T20:51:14.712Z,12.34
2022-09-24T20:53:41.850Z,12.35
2022-09-24T20:56:09.273Z,12.34
2022-09-24T20:58:37.141Z,12.37
2022-09-24T21:01:04.284Z,12.37
2022-09-24T21:03:43.980Z,12.34
2022-09-24T21:06:12.135Z,12.32
2022-09-24T21:08:40.977Z,12.31
2022-09-24T21:11:19.040Z,12.30
2022-09-24T21:13:50.045Z,12.30
2022-09-24T21:16:28.853Z,12.31
2022-09-24T21:18:55.924Z,12.29
2022-09-24T21:21:23.471Z,12.28
2022-09-24T21:23:52.813Z,12.28
2022-09-24T21:26:28.316Z,12.25
2022-09-24T21:28:58.701Z,12.25
2022-09-24T21:31:31.505Z,12.24
2022-09-24T21:33:58.459Z,12.17
2022-09-24T21:36:28.662Z,12.20
2022-09-24T21:39:04.914Z,12.21
2022-09-24T21:41:36.055Z,12.19
2022-09-24T21:44:03.187Z,12.18
2022-09-24T21:46:33.072Z,12.19
2022-09-24T21:49:00.476Z,12.23
2022-09-24T21:51:29.958Z,12.23
2022-09-24T21:54:01.787Z,12.24
2022-09-24T21:56:29.901Z,12.25
2022-09-24T21:58:57.192Z,12.24
2022-09-24T22:01:27.750Z,12.19
2022-09-24T22:03:56.122Z,12.18
2022-09-24T22:06:26.408Z,12.17
2022-09-24T22:08:54.695Z,12.10
2022-09-24T22:11:21.169Z,12.07
2022-09-24T22:13:47.774Z,12.10
2022-09-24T22:16:14.167Z,12.11
2022-09-24T22:18:40.665Z,12.12
2022-09-24T22:21:10.424Z,12.14
2022-09-24T22:23:37.530Z,12.15
2022-09-24T22:26:05.640Z,12.15
2022-09-24T22:28:32.430Z,12.17
2022-09-24T22:31:02.943Z,12.16
2022-09-24T22:33:48.885Z,12.14
2022-09-24T22:36:15.783Z,12.14
2022-09-24T22:38:42.315Z,12.12
2022-09-24T22:41:10.997Z,12.10
2022-09-24T22:43:39.037Z,12.11
2022-09-24T22:46:08.551Z,12.10
2022-09-24T22:48:35.129Z,12.06
2022-09-24T22:51:02.191Z,12.06
2022-09-24T22:53:29.046Z,12.06
2022-09-24T22:56:12.089Z,12.06
2022-09-24T22:58:41.363Z,12.09
2022-09-24T23:01:09.874Z,12.10
2022-09-24T23:03:36.939Z,12.09
2022-09-24T23:06:05.916Z,12.08
2022-09-24T23:08:34.140Z,12.12
2022-09-24T23:11:15.971Z,12.10
2022-09-24T23:13:44.545Z,12.10
2022-09-24T23:16:16.788Z,12.11
2022-09-24T23:18:45.735Z,12.10
2022-09-24T23:21:15.792Z,12.08
2022-09-24T23:23:42.844Z,12.08
2022-09-24T23:26:16.448Z,12.01
2022-09-24T23:28:46.077Z,12.01
2022-09-24T23:31:14.360Z,12.05
2022-09-24T23:33:42.117Z,12.06
2022-09-24T23:36:10.990Z,11.99
2022-09-24T23:38:38.971Z,11.99
2022-09-24T23:41:06.658Z,11.96
2022-09-24T23:43:33.825Z,11.95
2022-09-24T23:46:00.275Z,12.01
2022-09-24T23:48:27.736Z,12.09
2022-09-24T23:50:54.775Z,12.11
2022-09-24T23:53:24.594Z,11.98
2022-09-24T23:55:51.845Z,12.00
2022-09-24T23:58:20.847Z,11.95
